Time;durP1;ratioP1;P1;durP2;ratioP2;P2;SDS_P1;SDS_P2;PMS_P1;PMS_P2;Temp;Humidity;BMP_temperature;BMP_pressure;BME280_temperature;BME280_humidity;BME280_pressure;Samples;Min_cycle;Max_cycle;Signal;HPM_P1;HPM_P2
2021/11/25 00:01:13;;;;;;;;;19.25;18.25;;;;;9.49;53.58;100894.75;5020207;28;45446;-61
2021/11/25 00:03:38;;;;;;;;;20.75;18.00;;;;;9.45;53.63;100883.31;5020254;28;45332;-61
2021/11/25 00:06:04;;;;;;;;;17.25;15.50;;;;;9.44;53.45;100883.34;5019247;28;45228;-62
2021/11/25 00:08:29;;;;;;;;;16.00;15.50;;;;;9.42;53.61;100888.72;5020058;28;45235;-62
2021/11/25 00:10:54;;;;;;;;;16.00;15.00;;;;;9.40;53.96;100890.53;5019784;28;45341;-61
2021/11/25 00:13:20;;;;;;;;;17.25;15.75;;;;;9.35;53.62;100887.09;5017322;28;45515;-62
2021/11/25 00:15:45;;;;;;;;;17.00;16.00;;;;;9.37;53.84;100879.06;5018441;28;46386;-61
2021/11/25 00:18:11;;;;;;;;;18.00;13.75;;;;;9.48;54.30;100898.34;5019941;28;45444;-61
2021/11/25 00:20:36;;;;;;;;;16.75;14.25;;;;;9.51;54.33;100895.59;5018723;28;45310;-61
2021/11/25 00:23:02;;;;;;;;;19.75;16.50;;;;;9.54;54.22;100898.19;5019701;28;45320;-61
2021/11/25 00:25:27;;;;;;;;;17.25;16.25;;;;;9.55;53.88;100894.59;5019325;28;45447;-62
2021/11/25 00:27:53;;;;;;;;;11.75;11.25;;;;;9.52;53.91;100886.69;5019900;28;45371;-62
2021/11/25 00:30:18;;;;;;;;;19.00;16.00;;;;;9.54;54.20;100884.84;5019830;28;45309;-62
2021/11/25 00:32:44;;;;;;;;;13.75;12.25;;;;;9.60;53.79;100892.66;5019781;28;45520;-61
2021/11/25 00:35:12;;;;;;;;;20.25;16.25;;;;;9.61;54.19;100889.09;5019652;28;46139;-61
2021/11/25 00:37:38;;;;;;;;;16.75;14.75;;;;;9.54;53.78;100871.53;5019700;28;45372;-61
2021/11/25 00:40:09;;;;;;;;;20.50;18.25;;;;;9.60;54.30;100870.47;5019399;28;45386;-61
2021/11/25 00:42:35;;;;;;;;;20.00;20.00;;;;;9.59;54.37;100868.75;5018076;28;45397;-61
2021/11/25 00:45:01;;;;;;;;;17.50;16.00;;;;;9.66;53.98;100874.81;5018159;28;47513;-61
2021/11/25 00:47:26;;;;;;;;;14.75;13.75;;;;;9.66;54.26;100880.13;5019402;28;45342;-61
2021/11/25 00:49:51;;;;;;;;;14.75;13.00;;;;;9.67;54.48;100876.53;5019360;28;46350;-62
2021/11/25 00:52:17;;;;;;;;;19.00;18.00;;;;;9.67;54.58;100863.19;5018428;28;45650;-61
2021/11/25 00:54:42;;;;;;;;;17.00;16.00;;;;;9.69;54.37;100866.69;5019440;28;45989;-61
2021/11/25 00:57:08;;;;;;;;;17.50;15.25;;;;;9.66;54.31;100859.66;5025974;28;45311;-61
2021/11/25 00:59:33;;;;;;;;;17.75;15.50;;;;;9.72;54.04;100858.63;5026200;28;45472;-61
2021/11/25 01:01:58;;;;;;;;;22.00;19.50;;;;;9.72;54.26;100859.53;5041387;28;45581;-61
2021/11/25 01:04:24;;;;;;;;;21.75;19.75;;;;;9.68;54.17;100851.63;5025774;28;46507;-61
2021/11/25 01:06:50;;;;;;;;;22.75;20.50;;;;;9.67;54.22;100861.41;5025935;28;45417;-61
2021/11/25 01:09:15;;;;;;;;;17.75;15.50;;;;;9.64;54.01;100858.84;5025887;28;45320;-61
2021/11/25 01:11:41;;;;;;;;;21.75;18.25;;;;;9.62;54.45;100858.88;5025894;28;45283;-61
2021/11/25 01:14:06;;;;;;;;;19.25;18.50;;;;;9.67;54.71;100865.88;5022900;28;45389;-62
2021/11/25 01:16:32;;;;;;;;;22.25;19.75;;;;;9.62;54.03;100858.88;5025015;28;47048;-61
2021/11/25 01:18:57;;;;;;;;;24.75;22.25;;;;;9.63;54.47;100871.28;5025600;28;45428;-61
2021/11/25 01:21:23;;;;;;;;;24.50;23.00;;;;;9.55;54.38;100864.41;5025844;28;45338;-61
2021/11/25 01:23:48;;;;;;;;;23.50;21.50;;;;;9.53;54.51;100868.91;5025585;28;45893;-61
2021/11/25 01:26:14;;;;;;;;;20.25;19.25;;;;;9.55;54.56;100867.06;5025436;28;45700;-61
2021/11/25 01:28:39;;;;;;;;;20.50;18.75;;;;;9.56;54.52;100863.50;5025574;28;45401;-62
2021/11/25 01:31:04;;;;;;;;;14.25;12.75;;;;;9.57;54.33;100865.22;5025799;28;45357;-61
2021/11/25 01:33:31;;;;;;;;;17.25;15.75;;;;;9.45;54.28;100851.34;5025448;28;45897;-62
2021/11/25 01:35:58;;;;;;;;;20.25;18.50;;;;;9.52;54.13;100872.47;5025673;28;45402;-61
2021/11/25 01:38:24;;;;;;;;;22.75;20.50;;;;;9.54;54.01;100876.88;5025391;28;45455;-61
2021/11/25 01:40:53;;;;;;;;;20.25;18.25;;;;;9.57;53.83;100879.47;5025191;28;45197;-61
2021/11/25 01:43:21;;;;;;;;;17.00;17.00;;;;;9.59;53.90;100879.41;5025346;28;45923;-61
2021/11/25 01:45:49;;;;;;;;;19.75;19.75;;;;;9.59;54.07;100869.63;5024783;28;45648;-61
2021/11/25 01:48:15;;;;;;;;;16.75;15.00;;;;;9.57;53.86;100863.47;5025222;28;45145;-61
2021/11/25 01:50:40;;;;;;;;;18.50;16.25;;;;;9.54;53.52;100860.88;5024974;28;45378;-61
2021/11/25 01:53:05;;;;;;;;;21.00;17.75;;;;;9.51;53.85;100854.75;5025148;28;45989;-61
2021/11/25 01:55:31;;;;;;;;;22.00;20.00;;;;;9.57;54.18;100868.78;5025160;28;45559;-61
2021/11/25 01:57:56;;;;;;;;;18.75;15.75;;;;;9.57;53.66;100868.78;5025329;28;45177;-61
2021/11/25 02:00:51;;;;;;;;;23.50;20.50;;;;;9.58;54.13;100872.31;5025283;28;45551;-61
2021/11/25 02:03:17;;;;;;;;;19.00;19.00;;;;;9.55;53.74;100856.41;5028818;28;46196;-61
2021/11/25 02:05:43;;;;;;;;;17.50;14.75;;;;;9.58;53.40;100859.88;5025294;28;45675;-61
2021/11/25 02:08:08;;;;;;;;;20.75;17.00;;;;;9.61;53.33;100859.78;5021548;28;45467;-61
2021/11/25 02:10:36;;;;;;;;;18.25;18.25;;;;;9.63;53.49;100863.28;5021651;28;45509;-61
2021/11/25 02:13:03;;;;;;;;;20.00;17.50;;;;;9.63;53.66;100863.28;5006201;28;45273;-61
2021/11/25 02:15:34;;;;;;;;;19.25;16.00;;;;;9.65;53.75;100865.91;5020833;28;45362;-61
2021/11/25 02:18:04;;;;;;;;;17.75;16.75;;;;;9.63;53.34;100870.41;5021695;28;45500;-61
2021/11/25 02:20:37;;;;;;;;;17.00;15.25;;;;;9.59;53.44;100869.63;5021440;28;45180;-61
2021/11/25 02:23:03;;;;;;;;;12.75;10.00;;;;;9.53;52.71;100860.91;5037040;28;47391;-61
2021/11/25 02:25:29;;;;;;;;;25.00;20.75;;;;;9.50;53.13;100861.00;5021224;28;45502;-61
2021/11/25 02:27:55;;;;;;;;;18.75;16.75;;;;;9.42;53.07;100843.41;5021965;28;45294;-61
2021/11/25 02:30:20;;;;;;;;;19.50;18.25;;;;;9.46;53.18;100844.22;5021232;28;45169;-61
2021/11/25 02:32:47;;;;;;;;;17.00;16.00;;;;;9.55;52.79;100853.75;5021577;28;45435;-61
2021/11/25 02:35:25;;;;;;;;;16.25;15.50;;;;;9.55;52.68;100856.41;5021423;28;45293;-61
2021/11/25 02:37:53;;;;;;;;;17.50;14.25;;;;;9.56;52.22;100850.19;5021558;28;45343;-61
2021/11/25 02:40:30;;;;;;;;;12.25;9.75;;;;;9.53;52.23;100847.59;5020905;28;45452;-61
2021/11/25 02:43:03;;;;;;;;;15.50;12.50;;;;;9.51;52.41;100846.75;5021401;28;45449;-61
2021/11/25 02:45:31;;;;;;;;;17.00;14.00;;;;;9.49;52.77;100849.47;5020828;28;45596;-61
2021/11/25 02:47:57;;;;;;;;;16.50;15.25;;;;;9.49;52.34;100845.91;5021056;28;45370;-61
2021/11/25 02:50:24;;;;;;;;;15.00;15.00;;;;;9.50;52.39;100850.31;5019034;28;45291;-61
2021/11/25 02:52:50;;;;;;;;;15.75;13.50;;;;;9.48;52.77;100849.50;5021051;28;46185;-61
2021/11/25 02:55:17;;;;;;;;;14.00;11.75;;;;;9.47;52.95;100845.94;5021124;28;45457;-61
2021/11/25 02:57:43;;;;;;;;;15.50;14.25;;;;;9.49;52.78;100835.25;5021231;28;45375;-61
2021/11/25 03:00:29;;;;;;;;;22.50;17.75;;;;;9.47;52.52;100832.63;5021306;28;45331;-61
2021/11/25 03:03:14;;;;;;;;;12.75;12.75;;;;;9.43;52.18;100830.97;5020995;28;46165;-61
2021/11/25 03:05:45;;;;;;;;;16.00;14.00;;;;;9.46;52.46;100846.88;5021160;28;45986;-61
2021/11/25 03:08:12;;;;;;;;;18.25;16.00;;;;;9.47;52.47;100848.59;5008499;28;45330;-62
2021/11/25 03:10:50;;;;;;;;;14.25;12.50;;;;;9.46;52.16;100846.88;5020192;28;45330;-61
2021/11/25 03:13:20;;;;;;;;;14.75;12.00;;;;;9.39;51.89;100835.50;5018383;28;46163;-61
2021/11/25 03:15:46;;;;;;;;;15.75;11.00;;;;;9.36;52.72;100835.56;5019697;28;45572;-62
2021/11/25 03:18:12;;;;;;;;;20.00;16.00;;;;;9.30;52.25;100834.84;5021060;28;45307;-61
2021/11/25 03:20:42;;;;;;;;;13.00;13.00;;;;;9.25;52.22;100824.31;5020612;28;45389;-61
2021/11/25 03:23:10;;;;;;;;;12.75;12.25;;;;;9.27;52.37;100823.38;5020825;28;45297;-61
2021/11/25 03:25:37;;;;;;;;;15.50;14.50;;;;;9.27;52.76;100815.38;5020259;28;45368;-61
2021/11/25 03:28:03;;;;;;;;;21.00;16.75;;;;;9.30;52.60;100825.06;5020942;28;45446;-61
2021/11/25 03:30:30;;;;;;;;;14.75;14.25;;;;;9.35;52.27;100827.63;5020534;28;45424;-61
2021/11/25 03:32:55;;;;;;;;;16.50;14.00;;;;;9.37;52.92;100831.13;5020691;28;45334;-61
2021/11/25 03:35:21;;;;;;;;;14.75;13.50;;;;;9.35;52.39;100830.28;5020651;28;45300;-61
2021/11/25 03:37:46;;;;;;;;;15.50;14.50;;;;;9.30;52.32;100821.53;5020750;28;45561;-61
2021/11/25 03:40:12;;;;;;;;;20.75;15.00;;;;;9.24;52.70;100820.78;5020177;28;45219;-61
2021/11/25 03:42:38;;;;;;;;;14.25;13.00;;;;;9.24;52.98;100823.44;5019977;28;46102;-61
2021/11/25 03:45:08;;;;;;;;;16.00;15.25;;;;;9.26;52.63;100820.75;5019785;28;45736;-61
2021/11/25 03:47:33;;;;;;;;;18.50;14.00;;;;;9.27;52.61;100818.03;5020690;28;45252;-61
2021/11/25 03:49:59;;;;;;;;;17.25;16.00;;;;;9.26;52.68;100821.59;5020117;28;45429;-61
2021/11/25 03:52:24;;;;;;;;;20.00;16.00;;;;;9.25;52.65;100822.53;5020079;28;46039;-61
2021/11/25 03:54:54;;;;;;;;;14.25;14.25;;;;;9.25;52.87;100829.63;5018981;28;46051;-61
2021/11/25 03:57:21;;;;;;;;;14.75;14.75;;;;;9.24;52.58;100826.09;5020333;28;45465;-61
2021/11/25 03:59:48;;;;;;;;;17.50;17.50;;;;;9.25;52.65;100824.31;5020140;28;45384;-62
2021/11/25 04:02:13;;;;;;;;;17.75;15.75;;;;;9.19;53.05;100819.16;5018850;28;47026;-61
2021/11/25 04:04:38;;;;;;;;;20.25;16.00;;;;;9.23;53.40;100823.47;5020070;28;45338;-61
2021/11/25 04:07:04;;;;;;;;;16.25;15.25;;;;;9.25;52.94;100822.53;5018742;28;45679;-61
2021/11/25 04:09:29;;;;;;;;;21.25;17.50;;;;;9.25;52.87;100835.88;5019186;28;45447;-62
2021/11/25 04:11:55;;;;;;;;;18.00;17.00;;;;;9.26;52.72;100826.06;5019646;28;46004;-61
2021/11/25 04:14:20;;;;;;;;;20.00;18.25;;;;;9.20;52.97;100819.09;5017025;28;45445;-61
2021/11/25 04:16:45;;;;;;;;;20.50;18.75;;;;;9.21;52.96;100815.53;5020071;28;45251;-61
2021/11/25 04:19:10;;;;;;;;;19.75;17.25;;;;;9.17;53.04;100820.97;5019908;28;45361;-61
2021/11/25 04:21:36;;;;;;;;;15.00;13.50;;;;;9.23;53.16;100823.47;5019800;28;45580;-61
2021/11/25 04:24:01;;;;;;;;;17.25;16.00;;;;;9.27;52.92;100826.03;5019537;28;45240;-61
2021/11/25 04:26:26;;;;;;;;;15.75;15.25;;;;;9.29;53.28;100818.00;5019807;28;45251;-61
2021/11/25 04:28:52;;;;;;;;;15.75;12.25;;;;;9.33;53.44;100826.78;5019904;28;45444;-62
2021/11/25 04:36:48;;;;;;;;;20.50;17.50;;;;;9.27;53.13;100812.72;5018694;28;45280;-61
2021/11/25 04:39:14;;;;;;;;;21.50;17.25;;;;;9.31;53.26;100816.16;5019571;28;45710;-61
2021/11/25 04:41:39;;;;;;;;;15.75;14.75;;;;;9.26;53.43;100813.63;5018986;28;45439;-61
2021/11/25 04:44:05;;;;;;;;;20.50;19.75;;;;;9.25;53.53;100819.88;5019457;28;45354;-62
2021/11/25 04:46:30;;;;;;;;;21.50;20.00;;;;;9.28;53.37;100826.91;5019472;28;45401;-61
2021/11/25 04:48:56;;;;;;;;;30.50;26.00;;;;;9.27;53.29;100831.38;5019327;28;45284;-61
2021/11/25 04:51:21;;;;;;;;;21.75;21.75;;;;;9.28;53.50;100822.44;5019249;28;46104;-61
2021/11/25 04:53:46;;;;;;;;;20.50;19.50;;;;;9.28;53.91;100818.91;5019528;28;45382;-61
2021/11/25 04:56:12;;;;;;;;;29.00;23.25;;;;;9.28;53.90;100824.25;5019216;28;45277;-61
2021/11/25 04:58:37;;;;;;;;;27.00;24.00;;;;;9.28;54.08;100818.91;5019383;28;45320;-62
2021/11/25 05:01:03;;;;;;;;;30.00;26.25;;;;;9.26;54.33;100807.44;5017173;28;45418;-61
2021/11/25 05:03:28;;;;;;;;;37.00;30.25;;;;;9.30;54.21;100810.88;5019392;28;45350;-61
2021/11/25 05:05:54;;;;;;;;;34.00;31.00;;;;;9.28;54.29;100810.91;5019404;28;46361;-61
2021/11/25 05:08:21;;;;;;;;;37.50;32.00;;;;;9.25;54.53;100811.88;5018501;28;45516;-62
2021/11/25 05:10:46;;;;;;;;;37.25;33.75;;;;;9.19;54.88;100805.84;5018398;28;45352;-61
2021/11/25 05:13:12;;;;;;;;;46.00;36.00;;;;;9.18;54.93;100804.09;5016467;28;45482;-61
2021/11/25 05:15:37;;;;;;;;;44.50;35.75;;;;;9.15;55.30;100805.03;5019212;28;45243;-62
2021/11/25 05:18:03;;;;;;;;;39.00;35.50;;;;;9.16;55.51;100811.25;5019120;28;45386;-61
2021/11/25 05:20:29;;;;;;;;;42.75;37.75;;;;;9.06;55.68;100794.63;5033971;28;46944;-61
2021/11/25 05:22:55;;;;;;;;;41.75;35.25;;;;;9.13;55.46;100801.53;5019300;28;45304;-61
2021/11/25 05:25:20;;;;;;;;;39.50;36.50;;;;;9.02;55.64;100784.94;5034032;28;45357;-61
2021/11/25 05:27:46;;;;;;;;;46.00;36.50;;;;;9.06;55.90;100806.13;5019042;28;45330;-61
2021/11/25 05:30:14;;;;;;;;;41.50;33.50;;;;;9.03;56.10;100797.34;5017879;28;46894;-61
2021/11/25 05:32:40;;;;;;;;;43.00;38.25;;;;;9.06;55.88;100811.47;5034246;28;45644;-61
2021/11/25 05:35:07;;;;;;;;;44.00;39.00;;;;;9.06;55.89;100810.59;5018976;28;45540;-62
2021/11/25 05:37:33;;;;;;;;;47.00;39.50;;;;;9.07;56.33;100815.00;5018938;28;45390;-61
2021/11/25 05:39:58;;;;;;;;;47.00;38.75;;;;;9.08;56.15;100814.09;5018294;28;45901;-61
2021/11/25 05:42:24;;;;;;;;;45.00;38.00;;;;;9.08;56.17;100817.63;5019548;28;45340;-62
2021/11/25 05:44:49;;;;;;;;;50.00;41.50;;;;;9.01;56.15;100824.03;5022449;28;45345;-61
2021/11/25 05:47:14;;;;;;;;;47.25;39.50;;;;;9.00;56.19;100822.25;5022304;28;45461;-61
2021/11/25 05:49:40;;;;;;;;;45.75;38.50;;;;;8.98;56.30;100823.22;5021933;28;45889;-61
2021/11/25 05:52:05;;;;;;;;;54.75;39.00;;;;;9.03;56.47;100830.19;5021966;28;45251;-61
2021/11/25 05:54:31;;;;;;;;;46.25;37.00;;;;;9.00;56.11;100830.25;5021828;28;45306;-61
2021/11/25 05:56:57;;;;;;;;;47.75;38.75;;;;;9.02;56.08;100833.78;5021867;28;45450;-61
2021/11/25 05:59:22;;;;;;;;;48.75;38.50;;;;;8.98;56.50;100849.84;5021860;28;45453;-61
2021/11/25 06:01:47;;;;;;;;;47.25;38.75;;;;;8.89;56.68;100848.28;5021042;28;45362;-61
2021/11/25 06:04:13;;;;;;;;;50.75;41.25;;;;;8.79;56.11;100838.78;5021913;28;45355;-61
2021/11/25 06:06:38;;;;;;;;;49.50;40.00;;;;;8.81;56.37;100851.13;5021781;28;45277;-61
2021/11/25 06:09:04;;;;;;;;;50.50;40.25;;;;;8.77;56.39;100849.47;5021426;28;45928;-62
2021/11/25 06:11:29;;;;;;;;;52.50;43.50;;;;;8.77;56.47;100862.75;5021651;28;45468;-61
2021/11/25 06:13:54;;;;;;;;;55.75;40.50;;;;;8.79;56.70;100865.41;5018917;28;45307;-61
2021/11/25 06:16:20;;;;;;;;;42.00;37.75;;;;;8.77;56.62;100859.22;5021832;28;45265;-61
2021/11/25 06:18:45;;;;;;;;;50.50;41.00;;;;;8.79;56.72;100860.06;5021390;28;49117;-61
2021/11/25 06:21:10;;;;;;;;;51.75;41.75;;;;;8.63;56.59;100836.44;5021723;28;45169;-61
2021/11/25 06:23:36;;;;;;;;;46.75;38.50;;;;;8.65;56.40;100847.94;5021652;28;45218;-61
2021/11/25 06:26:02;;;;;;;;;48.25;35.75;;;;;8.60;56.85;100833.84;5021423;28;45232;-61
2021/11/25 06:28:28;;;;;;;;;55.75;42.75;;;;;8.71;56.69;100849.59;5021216;28;45491;-61
2021/11/25 06:30:53;;;;;;;;;49.25;40.50;;;;;8.72;56.81;100856.66;5019648;28;45157;-61
2021/11/25 06:33:19;;;;;;;;;53.25;43.25;;;;;8.72;56.69;100869.97;5021471;28;45789;-61
2021/11/25 06:35:44;;;;;;;;;49.50;36.75;;;;;8.68;56.92;100861.16;5021348;28;45762;-61
2021/11/25 06:38:10;;;;;;;;;55.50;42.75;;;;;8.68;56.96;100868.28;5020499;28;45666;-61
2021/11/25 06:40:36;;;;;;;;;57.75;43.50;;;;;8.67;56.99;100863.84;5020391;28;45383;-61
2021/11/25 06:43:07;;;;;;;;;56.50;43.25;;;;;8.66;56.79;100859.47;5021001;28;45359;-61
2021/11/25 06:45:34;;;;;;;;;55.75;43.00;;;;;8.60;56.91;100859.59;5020250;28;45319;-62
2021/11/25 06:48:00;;;;;;;;;56.75;43.75;;;;;8.63;57.01;100867.50;5020874;28;45350;-61
2021/11/25 06:50:25;;;;;;;;;56.25;42.50;;;;;8.65;56.74;100868.34;5020058;28;45483;-61
2021/11/25 06:52:51;;;;;;;;;49.75;39.75;;;;;8.61;56.73;100856.91;5020266;28;45376;-63
2021/11/25 06:55:18;;;;;;;;;51.00;39.75;;;;;8.65;56.65;100869.25;5019362;28;45322;-62
2021/11/25 06:57:48;;;;;;;;;58.00;43.50;;;;;8.65;56.88;100879.00;5020624;28;45505;-62
2021/11/25 07:00:16;;;;;;;;;54.50;41.75;;;;;8.60;56.89;100881.75;5020148;28;45715;-61
2021/11/25 07:02:42;;;;;;;;;54.00;42.00;;;;;8.63;56.88;100887.00;5021014;28;45426;-62
2021/11/25 07:05:08;;;;;;;;;56.50;44.00;;;;;8.62;57.10;100892.34;5019139;28;45519;-62
2021/11/25 07:07:35;;;;;;;;;55.75;44.75;;;;;8.59;56.95;100888.00;5017902;28;46125;-62
2021/11/25 07:10:01;;;;;;;;;45.25;39.25;;;;;8.56;56.86;100900.50;5020372;28;45703;-62
2021/11/25 07:12:27;;;;;;;;;50.25;40.75;;;;;8.48;56.89;100892.66;5027841;28;45418;-62
2021/11/25 07:14:52;;;;;;;;;51.00;41.75;;;;;8.47;57.08;100899.78;5012857;28;45479;-62
2021/11/25 07:17:17;;;;;;;;;54.50;43.50;;;;;8.56;57.21;100906.69;5020675;28;45303;-62
2021/11/25 07:19:43;;;;;;;;;46.25;39.25;;;;;8.50;56.91;100897.06;5008271;28;45330;-62
2021/11/25 07:22:08;;;;;;;;;55.50;45.00;;;;;8.59;56.93;100901.28;5020678;28;45224;-62
2021/11/25 07:24:34;;;;;;;;;54.75;42.50;;;;;8.60;56.85;100904.81;5015118;28;45491;-62
2021/11/25 07:26:59;;;;;;;;;57.75;44.25;;;;;8.58;56.76;100904.84;5020426;28;45418;-62
2021/11/25 07:29:25;;;;;;;;;54.00;43.75;;;;;8.59;57.05;100911.06;5014268;28;45521;-62
2021/11/25 07:31:52;;;;;;;;;51.00;39.75;;;;;8.55;57.13;100912.91;5020719;28;45393;-62
2021/11/25 07:34:17;;;;;;;;;52.75;42.50;;;;;8.56;57.11;100921.78;5017953;28;45508;-62
2021/11/25 07:36:42;;;;;;;;;57.75;45.00;;;;;8.53;57.07;100928.91;5020328;28;46117;-62
2021/11/25 07:39:08;;;;;;;;;56.50;42.25;;;;;8.48;57.02;100921.94;5019703;28;45312;-62
2021/11/25 07:41:33;;;;;;;;;53.00;40.00;;;;;8.46;57.06;100921.09;5010249;28;45638;-62
2021/11/25 07:43:59;;;;;;;;;54.50;42.25;;;;;8.43;57.21;100935.31;5032185;28;45435;-62
2021/11/25 07:46:24;;;;;;;;;56.50;46.75;;;;;8.45;57.09;100946.84;5019654;28;45434;-62
2021/11/25 07:48:50;;;;;;;;;46.50;38.50;;;;;8.45;57.29;100949.50;5019999;28;45448;-61
2021/11/25 07:51:16;;;;;;;;;53.50;45.00;;;;;8.38;57.17;100933.63;5015648;28;45309;-62
2021/11/25 07:53:42;;;;;;;;;53.25;45.25;;;;;8.42;57.25;100945.97;5019094;28;45326;-61
2021/11/25 07:56:08;;;;;;;;;47.00;40.75;;;;;8.43;57.36;100943.28;5018097;28;45993;-61
2021/11/25 07:58:33;;;;;;;;;57.25;46.25;;;;;8.39;57.65;100946.91;5015891;28;45505;-61
2021/11/25 08:00:59;;;;;;;;;53.00;42.00;;;;;8.45;57.34;100951.25;5018164;28;45445;-62
2021/11/25 08:03:24;;;;;;;;;53.75;42.25;;;;;8.44;57.45;100961.03;5019161;28;45567;-62
2021/11/25 08:05:50;;;;;;;;;58.00;44.75;;;;;8.38;57.58;100945.16;5018234;28;45950;-62
2021/11/25 08:08:16;;;;;;;;;57.00;46.50;;;;;8.44;57.26;100974.31;5019607;28;45863;-62
2021/11/25 08:10:41;;;;;;;;;56.00;43.25;;;;;8.35;57.30;100958.50;5018387;28;45518;-61
2021/11/25 08:13:07;;;;;;;;;53.25;41.25;;;;;8.35;57.39;100971.81;5016820;28;45507;-62
2021/11/25 08:15:33;;;;;;;;;53.75;41.00;;;;;8.39;57.14;100985.94;5014461;28;45929;-62
2021/11/25 08:18:00;;;;;;;;;57.75;45.75;;;;;8.34;57.31;100976.25;5017413;28;45954;-61
2021/11/25 08:20:27;;;;;;;;;54.00;42.50;;;;;8.34;57.31;100973.59;5018171;28;45598;-61
2021/11/25 08:22:52;;;;;;;;;58.00;46.75;;;;;8.32;57.51;100979.88;5018549;28;45537;-61
2021/11/25 08:25:20;;;;;;;;;57.50;46.50;;;;;8.32;57.63;100987.84;5018084;28;46238;-61
2021/11/25 08:27:46;;;;;;;;;50.25;40.25;;;;;8.32;57.80;100980.72;5017809;28;46044;-61
2021/11/25 08:30:13;;;;;;;;;15.50;13.75;;;;;8.34;57.74;100986.03;5016229;28;45363;-61
2021/11/25 08:32:40;;;;;;;;;55.75;41.25;;;;;8.34;57.79;100981.56;5015768;28;45421;-61
2021/11/25 08:35:06;;;;;;;;;55.00;44.75;;;;;8.37;57.72;100985.97;5016176;28;46498;-61
2021/11/25 08:37:34;;;;;;;;;53.00;42.75;;;;;8.41;57.81;100992.09;5016899;28;45366;-61
2021/11/25 08:40:00;;;;;;;;;58.50;46.25;;;;;8.43;57.74;100992.97;5016661;28;45494;-61
2021/11/25 08:42:25;;;;;;;;;55.50;43.50;;;;;8.42;57.90;100989.41;5018031;28;45574;-61
2021/11/25 08:44:51;;;;;;;;;48.25;37.00;;;;;8.47;57.63;100995.56;5018150;28;45403;-61
2021/11/25 08:47:17;;;;;;;;;59.25;45.25;;;;;8.47;57.79;100982.25;5018085;28;45682;-61
2021/11/25 08:49:42;;;;;;;;;57.25;45.00;;;;;8.42;57.73;100976.13;5018024;28;45482;-61
2021/11/25 08:52:07;;;;;;;;;58.00;48.25;;;;;8.47;57.63;100992.91;5032658;28;45707;-61
2021/11/25 08:54:33;;;;;;;;;58.25;47.00;;;;;8.49;57.69;100987.53;5017696;28;46062;-61
2021/11/25 08:56:58;;;;;;;;;57.25;46.50;;;;;8.45;57.57;100978.75;5018020;28;45399;-61
2021/11/25 08:59:23;;;;;;;;;47.50;39.25;;;;;8.52;57.34;100984.84;5015774;28;45387;-61
2021/11/25 09:01:49;;;;;;;;;49.25;39.50;;;;;8.50;57.93;100974.22;5016652;28;45679;-60
2021/11/25 09:04:16;;;;;;;;;49.50;39.00;;;;;8.51;57.70;100965.31;5017509;28;45477;-60
2021/11/25 09:06:41;;;;;;;;;56.75;46.00;;;;;8.53;57.71;100979.44;5018604;28;45387;-60
2021/11/25 09:09:07;;;;;;;;;56.75;43.50;;;;;8.51;57.68;100967.09;5017588;28;45425;-60
2021/11/25 09:11:36;;;;;;;;;56.25;43.25;;;;;8.57;57.36;100974.97;5018185;28;45272;-60
2021/11/25 09:14:02;;;;;;;;;51.75;40.00;;;;;8.59;57.65;100977.59;5015574;28;46170;-60
2021/11/25 09:16:28;;;;;;;;;59.50;46.00;;;;;8.63;57.91;100981.94;5019708;28;45402;-60
2021/11/25 09:18:53;;;;;;;;;56.50;42.00;;;;;8.61;57.63;100968.66;5020936;28;45900;-61
2021/11/25 09:21:21;;;;;;;;;56.50;43.00;;;;;8.69;57.51;100972.03;5021968;28;45473;-60
2021/11/25 09:23:47;;;;;;;;;55.75;42.00;;;;;8.71;57.69;100967.56;5021243;28;46163;-60
2021/11/25 09:26:12;;;;;;;;;57.25;45.50;;;;;8.73;57.50;100969.31;5021529;28;45324;-60
2021/11/25 09:28:38;;;;;;;;;53.75;43.50;;;;;8.76;57.77;100963.94;5021663;28;45450;-60
2021/11/25 09:31:03;;;;;;;;;54.75;42.25;;;;;8.81;57.67;100968.25;5021570;28;45579;-60
2021/11/25 09:33:29;;;;;;;;;56.50;45.50;;;;;8.84;57.67;100962.00;5021477;28;46070;-60
2021/11/25 09:35:54;;;;;;;;;54.50;44.75;;;;;8.86;57.49;100968.16;5021423;28;45436;-60
2021/11/25 09:38:20;;;;;;;;;53.75;40.50;;;;;8.88;56.96;100955.69;5021731;28;45416;-60
2021/11/25 09:40:48;;;;;;;;;55.25;44.25;;;;;8.92;57.18;100967.13;5020885;28;45268;-60
2021/11/25 09:43:21;;;;;;;;;55.75;44.00;;;;;8.94;56.98;100957.31;5019909;28;45461;-60
2021/11/25 09:45:51;;;;;;;;;53.25;42.25;;;;;8.95;56.91;100949.28;5021693;28;45953;-60
2021/11/25 09:48:18;;;;;;;;;57.75;47.00;;;;;9.03;56.84;100960.66;5021310;28;45308;-60
2021/11/25 09:50:45;;;;;;;;;53.25;43.50;;;;;9.02;57.22;100955.34;5011696;28;45638;-60
2021/11/25 09:53:14;;;;;;;;;58.50;46.00;;;;;9.07;56.48;100950.81;5018449;28;46005;-60
2021/11/25 09:55:43;;;;;;;;;56.00;44.00;;;;;9.11;56.88;100956.97;5021242;28;45916;-60
2021/11/25 09:58:12;;;;;;;;;55.00;45.00;;;;;9.15;56.80;100961.28;5021079;28;45519;-60
2021/11/25 10:00:40;;;;;;;;;53.00;41.50;;;;;9.17;56.57;100963.03;5020756;28;45508;-60
2021/11/25 10:03:05;;;;;;;;;57.25;45.00;;;;;9.15;56.57;100966.63;5020623;28;46109;-60
2021/11/25 10:05:31;;;;;;;;;55.00;42.25;;;;;9.19;56.44;100965.66;5036791;28;45168;-60
2021/11/25 10:07:56;;;;;;;;;51.50;44.00;;;;;9.11;56.26;100967.63;5021487;28;46140;-60
2021/11/25 10:10:34;;;;;;;;;56.25;43.75;;;;;9.19;56.39;100974.50;5020857;28;45318;-60
2021/11/25 10:13:12;;;;;;;;;52.50;43.50;;;;;9.22;56.44;100971.78;5018060;28;46346;-60
2021/11/25 10:15:39;;;;;;;;;53.00;42.50;;;;;9.27;55.92;100975.22;5021286;28;45469;-60
2021/11/25 10:18:10;;;;;;;;;51.00;42.00;;;;;9.28;56.24;100971.63;5021428;28;45445;-60
2021/11/25 10:20:39;;;;;;;;;59.25;45.25;;;;;9.29;55.91;100972.50;5020668;28;45333;-60
2021/11/25 10:23:04;;;;;;;;;57.25;45.75;;;;;9.28;56.13;100966.28;5014429;28;46300;-60
2021/11/25 10:25:48;;;;;;;;;52.00;42.00;;;;;9.28;56.37;100966.28;5020547;28;45318;-59
2021/11/25 10:28:34;;;;;;;;;60.75;45.00;;;;;9.31;56.07;100970.69;5032577;28;45287;-60
2021/11/25 10:31:00;;;;;;;;;57.50;44.75;;;;;9.31;55.89;100967.16;5020634;28;45384;-59
2021/11/25 10:34:11;;;;;;;;;48.25;39.50;;;;;9.34;55.77;100965.28;5019092;28;45919;-59
2021/11/25 10:42:05;;;;;;;;;55.50;44.50;;;;;9.32;55.88;100976.88;5014210;28;45325;-60
2021/11/25 10:44:37;;;;;;;;;54.75;44.00;;;;;9.31;56.16;100970.69;5019487;28;46176;-60
2021/11/25 10:47:20;;;;;;;;;58.00;46.25;;;;;9.33;56.03;100960.00;5020271;28;45442;-60
2021/11/25 10:49:50;;;;;;;;;54.75;41.00;;;;;9.33;55.56;100954.66;5020078;28;45366;-60
2021/11/25 10:52:31;;;;;;;;;57.75;46.75;;;;;9.33;55.84;100950.19;5019750;28;45600;-60
2021/11/25 10:55:06;;;;;;;;;58.00;46.00;;;;;9.33;55.85;100947.53;5034847;28;45439;-60
2021/11/25 10:57:57;;;;;;;;;57.25;46.50;;;;;9.37;56.25;100953.66;5020328;28;45498;-60
2021/11/25 11:00:25;;;;;;;;;59.50;46.25;;;;;9.36;55.98;100949.28;5020253;28;45459;-60
2021/11/25 11:03:08;;;;;;;;;57.25;44.50;;;;;9.31;55.79;100944.03;5017145;28;45848;-60
2021/11/25 11:05:48;;;;;;;;;56.50;43.75;;;;;9.30;56.04;100931.63;5018999;28;45480;-60
2021/11/25 11:08:15;;;;;;;;;59.25;48.25;;;;;9.32;56.02;100944.91;5016221;28;45861;-60
2021/11/25 11:10:57;;;;;;;;;60.50;47.00;;;;;9.29;56.13;100937.88;5019444;28;45397;-60
2021/11/25 11:16:23;;;;;;;;;58.00;47.75;;;;;9.39;56.08;100941.22;5017761;28;45354;-60
2021/11/25 11:18:57;;;;;;;;;60.25;49.25;;;;;9.36;56.36;100934.16;5020474;28;45406;-60
2021/11/25 11:21:43;;;;;;;;;58.25;48.00;;;;;9.39;56.34;100933.22;5020810;28;45469;-60
2021/11/25 11:24:18;;;;;;;;;54.00;43.25;;;;;9.40;56.44;100929.63;5020167;28;45305;-59
2021/11/25 11:26:56;;;;;;;;;60.75;50.50;;;;;9.49;56.30;100923.19;5020188;28;45977;-61
2021/11/25 11:29:28;;;;;;;;;57.00;46.50;;;;;9.55;56.29;100931.03;5020534;28;45788;-60
2021/11/25 11:31:56;;;;;;;;;61.50;49.00;;;;;9.56;56.13;100933.66;5019426;28;45406;-63